Time,TemperatureF,DewpointF,PressureIn,WindDirection,WindDirectionDegrees,WindSpeedMPH,WindSpeedGustMPH,Humidity,HourlyPrecipIn,Conditions,Clouds,dailyrainin,SoftwareType,DateUTC
2013-05-18 00:04:00,59.9,57.0,30.01,West,270,2.0,2.0,90,0.00,,,0.00,meteohub,2013-05-18 07:04:00,
2013-05-18 00:09:00,59.9,57.0,30.01,West,270,2.0,2.0,90,0.00,,,0.00,meteohub,2013-05-18 07:09:00,
2013-05-18 00:14:00,60.1,57.2,30.01,NW,315,4.0,4.0,90,0.00,,,0.00,meteohub,2013-05-18 07:14:00,
2013-05-18 00:19:00,60.3,57.0,30.01,NW,315,2.0,4.0,89,0.00,,,0.00,meteohub,2013-05-18 07:19:00,
2013-05-18 00:24:00,60.4,56.8,30.01,NW,315,4.0,4.0,88,0.00,,,0.00,meteohub,2013-05-18 07:24:00,
2013-05-18 00:29:00,60.6,57.0,30.01,NW,315,3.0,4.0,88,0.00,,,0.00,meteohub,2013-05-18 07:29:00,
2013-05-18 00:34:00,60.6,57.0,30.01,NW,315,3.0,4.0,88,0.00,,,0.00,meteohub,2013-05-18 07:34:00,
2013-05-18 00:39:00,60.4,56.5,30.01,NW,315,2.0,4.0,87,0.00,,,0.00,meteohub,2013-05-18 07:39:00,
2013-05-18 00:45:00,60.4,56.8,30.01,NW,315,2.0,4.0,88,0.00,,,0.00,meteohub,2013-05-18 07:45:00,
2013-05-18 00:50:00,60.4,56.8,30.01,NW,315,2.0,3.0,88,0.00,,,0.00,meteohub,2013-05-18 07:50:00,
2013-05-18 00:55:00,60.4,56.8,30.01,NW,315,2.0,3.0,88,0.00,,,0.00,meteohub,2013-05-18 07:55:00,
2013-05-18 01:00:00,60.4,56.8,30.01,NW,315,3.0,3.0,88,0.00,,,0.00,meteohub,2013-05-18 08:00:00,
2013-05-18 01:05:00,60.3,56.7,30.01,NW,315,2.0,3.0,88,0.00,,,0.00,meteohub,2013-05-18 08:05:00,
2013-05-18 01:10:00,60.1,56.5,30.01,NW,315,2.0,3.0,88,0.00,,,0.00,meteohub,2013-05-18 08:10:00,
2013-05-18 01:15:00,60.1,56.5,30.01,NW,315,0.0,3.0,88,0.00,,,0.00,meteohub,2013-05-18 08:15:00,
2013-05-18 01:20:00,59.7,56.1,30.01,NW,315,0.0,3.0,88,0.00,,,0.00,meteohub,2013-05-18 08:20:00,
2013-05-18 01:25:00,59.4,55.8,30.00,NW,315,0.0,2.0,88,0.00,,,0.00,meteohub,2013-05-18 08:25:00,
2013-05-18 01:30:00,59.0,55.8,30.00,NW,315,0.0,2.0,89,0.00,,,0.00,meteohub,2013-05-18 08:30:00,
2013-05-18 01:35:00,59.0,56.1,30.01,NW,315,0.0,0.0,90,0.00,,,0.00,meteohub,2013-05-18 08:35:00,
2013-05-18 01:40:00,59.0,56.1,30.01,NW,315,0.0,0.0,90,0.00,,,0.00,meteohub,2013-05-18 08:40:00,
2013-05-18 01:45:00,59.0,56.3,30.01,NW,315,0.0,0.0,91,0.00,,,0.00,meteohub,2013-05-18 08:45:00,
2013-05-18 01:50:00,59.2,56.5,30.01,NW,315,0.0,0.0,91,0.00,,,0.00,meteohub,2013-05-18 08:50:00,
2013-05-18 01:55:00,59.2,56.5,30.00,NW,315,0.0,0.0,91,0.00,,,0.00,meteohub,2013-05-18 08:55:00,
2013-05-18 02:00:00,59.4,56.7,30.00,NW,315,0.0,0.0,91,0.00,,,0.00,meteohub,2013-05-18 09:00:00,
2013-05-18 02:05:00,59.4,56.7,30.00,NW,315,0.0,0.0,91,0.00,,,0.00,meteohub,2013-05-18 09:05:00,
2013-05-18 02:10:00,59.7,57.0,30.00,NW,315,1.0,0.0,91,0.00,,,0.00,meteohub,2013-05-18 09:10:00,
2013-05-18 02:15:00,59.7,57.0,30.00,NW,315,0.0,1.0,91,0.00,,,0.00,meteohub,2013-05-18 09:15:00,
2013-05-18 02:20:00,59.7,56.8,30.00,NW,315,0.0,1.0,90,0.00,,,0.00,meteohub,2013-05-18 09:20:00,
2013-05-18 02:25:00,59.7,56.8,30.00,NW,315,0.0,1.0,90,0.00,,,0.00,meteohub,2013-05-18 09:25:00,
2013-05-18 02:30:00,59.9,57.0,30.00,NW,315,0.0,0.0,90,0.00,,,0.00,meteohub,2013-05-18 09:30:00,
2013-05-18 02:35:00,60.3,57.6,30.00,NW,315,0.0,2.0,91,0.00,,,0.00,meteohub,2013-05-18 09:35:00,
2013-05-18 02:40:00,60.6,57.9,30.00,NW,315,2.0,2.0,91,0.00,,,0.00,meteohub,2013-05-18 09:40:00,
2013-05-18 02:45:00,60.6,57.9,30.00,NW,315,2.0,2.0,91,0.00,,,0.00,meteohub,2013-05-18 09:45:00,
2013-05-18 02:50:00,60.8,58.1,30.00,NW,315,2.0,2.0,91,0.00,,,0.00,meteohub,2013-05-18 09:50:00,
2013-05-18 02:55:00,61.0,58.6,30.00,NW,315,1.0,2.0,92,0.00,,,0.00,meteohub,2013-05-18 09:55:00,
2013-05-18 03:00:00,61.0,58.6,30.00,NW,315,2.0,2.0,92,0.00,,,0.00,meteohub,2013-05-18 10:00:00,
2013-05-18 03:05:00,60.8,58.5,30.00,NW,315,0.0,2.0,92,0.00,,,0.00,meteohub,2013-05-18 10:05:00,
2013-05-18 03:10:00,60.8,58.5,30.01,NW,315,1.0,2.0,92,0.00,,,0.00,meteohub,2013-05-18 10:10:00,
2013-05-18 03:15:00,61.0,58.6,30.01,NW,315,0.0,2.0,92,0.00,,,0.00,meteohub,2013-05-18 10:15:00,
2013-05-18 03:20:00,61.0,59.0,30.00,WNW,293,2.0,2.0,93,0.00,,,0.00,meteohub,2013-05-18 10:20:00,
2013-05-18 03:25:00,61.0,58.6,30.00,West,270,2.0,3.0,92,0.00,,,0.00,meteohub,2013-05-18 10:25:00,
2013-05-18 03:30:00,60.8,58.5,30.01,West,270,3.0,4.0,92,0.00,,,0.00,meteohub,2013-05-18 10:30:00,
2013-05-18 03:35:00,61.0,58.6,30.00,West,270,2.0,4.0,92,0.00,,,0.00,meteohub,2013-05-18 10:35:00,
2013-05-18 03:40:00,60.8,58.5,30.00,West,270,2.0,4.0,92,0.00,,,0.00,meteohub,2013-05-18 10:40:00,
2013-05-18 03:45:00,60.6,58.3,30.01,West,270,0.0,3.0,92,0.00,,,0.00,meteohub,2013-05-18 10:45:00,
2013-05-18 03:50:00,60.3,57.9,30.01,West,270,0.0,2.0,92,0.00,,,0.00,meteohub,2013-05-18 10:50:00,
2013-05-18 03:55:00,60.1,57.7,30.01,West,270,0.0,2.0,92,0.00,,,0.00,meteohub,2013-05-18 10:55:00,
2013-05-18 04:00:00,59.7,57.4,30.01,West,270,0.0,2.0,92,0.00,,,0.00,meteohub,2013-05-18 11:00:00,
2013-05-18 04:05:00,59.4,57.4,30.01,West,270,0.0,0.0,93,0.00,,,0.00,meteohub,2013-05-18 11:05:00,
2013-05-18 04:10:00,59.2,57.2,30.01,West,270,0.0,0.0,93,0.00,,,0.00,meteohub,2013-05-18 11:10:00,
2013-05-18 04:15:00,59.0,57.2,30.00,West,270,0.0,1.0,94,0.00,,,0.00,meteohub,2013-05-18 11:15:00,
2013-05-18 04:20:00,58.8,57.0,30.00,West,270,0.0,1.0,94,0.00,,,0.00,meteohub,2013-05-18 11:20:00,
2013-05-18 04:25:00,58.5,56.7,30.01,West,270,0.0,1.0,94,0.00,,,0.00,meteohub,2013-05-18 11:25:00,
2013-05-18 04:30:00,58.3,56.5,30.00,West,270,0.0,0.0,94,0.00,,,0.00,meteohub,2013-05-18 11:30:00,
2013-05-18 04:35:00,58.1,56.7,30.01,West,270,0.0,0.0,95,0.00,,,0.00,meteohub,2013-05-18 11:35:00,
2013-05-18 04:40:00,57.9,56.5,30.00,West,270,0.0,0.0,95,0.00,,,0.00,meteohub,2013-05-18 11:40:00,
2013-05-18 04:45:00,57.9,56.5,30.00,West,270,0.0,0.0,95,0.00,,,0.00,meteohub,2013-05-18 11:45:00,
2013-05-18 04:50:00,57.6,56.1,30.01,West,270,0.0,0.0,95,0.00,,,0.00,meteohub,2013-05-18 11:50:00,
2013-05-18 04:56:00,57.6,56.5,30.01,West,270,0.0,0.0,96,0.00,,,0.00,meteohub,2013-05-18 11:56:00,
2013-05-18 05:01:00,57.6,56.5,30.01,West,270,0.0,0.0,96,0.00,,,0.00,meteohub,2013-05-18 12:01:00,
2013-05-18 05:06:00,57.6,56.7,30.01,West,270,0.0,0.0,97,0.00,,,0.00,meteohub,2013-05-18 12:06:00,
2013-05-18 05:11:00,57.7,56.8,30.01,West,270,0.0,2.0,97,0.00,,,0.00,meteohub,2013-05-18 12:11:00,
2013-05-18 05:16:00,57.9,57.0,30.01,West,270,0.0,2.0,97,0.00,,,0.00,meteohub,2013-05-18 12:16:00,
2013-05-18 05:21:00,57.9,57.4,30.01,West,270,0.0,2.0,98,0.00,,,0.00,meteohub,2013-05-18 12:21:00,
2013-05-18 05:26:00,57.9,57.4,30.01,West,270,1.0,1.0,98,0.00,,,0.00,meteohub,2013-05-18 12:26:00,
2013-05-18 05:31:00,58.1,57.6,30.01,West,270,0.0,2.0,98,0.00,,,0.00,meteohub,2013-05-18 12:31:00,
2013-05-18 05:36:00,58.1,57.6,30.02,West,270,2.0,2.0,98,0.00,,,0.00,meteohub,2013-05-18 12:36:00,
2013-05-18 05:41:00,58.1,57.6,30.02,West,270,1.0,2.0,98,0.00,,,0.00,meteohub,2013-05-18 12:41:00,
2013-05-18 05:46:00,58.1,57.6,30.02,West,270,0.0,2.0,98,0.00,,,0.00,meteohub,2013-05-18 12:46:00,
2013-05-18 05:51:00,57.7,57.2,30.02,West,270,0.0,2.0,98,0.00,,,0.00,meteohub,2013-05-18 12:51:00,
2013-05-18 05:56:00,57.7,57.2,30.02,West,270,0.0,2.0,98,0.00,,,0.00,meteohub,2013-05-18 12:56:00,
2013-05-18 06:01:00,57.9,57.4,30.02,West,270,0.0,2.0,98,0.00,,,0.00,meteohub,2013-05-18 13:01:00,
2013-05-18 06:06:00,58.1,57.6,30.02,West,270,2.0,2.0,98,0.00,,,0.00,meteohub,2013-05-18 13:06:00,
2013-05-18 06:11:00,58.3,57.7,30.03,West,270,2.0,2.0,98,0.00,,,0.00,meteohub,2013-05-18 13:11:00,
2013-05-18 06:16:00,58.5,57.9,30.03,West,270,0.0,2.0,98,0.00,,,0.00,meteohub,2013-05-18 13:16:00,
2013-05-18 06:21:00,58.6,58.1,30.03,West,270,1.0,2.0,98,0.00,,,0.00,meteohub,2013-05-18 13:21:00,
2013-05-18 06:26:00,58.8,58.3,30.03,West,270,0.0,2.0,98,0.00,,,0.00,meteohub,2013-05-18 13:26:00,
2013-05-18 06:31:00,59.5,59.0,30.03,West,270,0.0,1.0,98,0.00,,,0.00,meteohub,2013-05-18 13:31:00,
2013-05-18 06:36:00,60.8,60.3,30.03,West,270,0.0,1.0,98,0.00,,,0.00,meteohub,2013-05-18 13:36:00,
2013-05-18 06:41:00,62.2,60.4,30.04,West,270,0.0,1.0,94,0.00,,,0.00,meteohub,2013-05-18 13:41:00,
2013-05-18 06:46:00,63.3,61.0,30.04,West,270,0.0,1.0,92,0.00,,,0.00,meteohub,2013-05-18 13:46:00,
2013-05-18 06:51:00,64.6,61.5,30.04,West,270,2.0,2.0,90,0.00,,,0.00,meteohub,2013-05-18 13:51:00,
2013-05-18 06:56:00,65.3,61.3,30.04,West,270,0.0,2.0,87,0.00,,,0.00,meteohub,2013-05-18 13:56:00,
2013-05-18 07:01:00,67.1,62.1,30.04,West,270,1.0,2.0,84,0.00,,,0.00,meteohub,2013-05-18 14:01:00,
2013-05-18 07:06:00,67.6,61.2,30.04,West,270,1.0,2.0,80,0.00,,,0.00,meteohub,2013-05-18 14:06:00,
2013-05-18 07:11:00,68.0,60.4,30.04,South,180,0.0,4.0,77,0.00,,,0.00,meteohub,2013-05-18 14:11:00,
2013-05-18 07:16:00,69.1,60.8,30.04,West,270,3.0,4.0,75,0.00,,,0.00,meteohub,2013-05-18 14:16:00,
2013-05-18 07:21:00,68.7,59.0,30.04,West,270,2.0,4.0,71,0.00,,,0.00,meteohub,2013-05-18 14:21:00,
2013-05-18 07:26:00,68.9,59.5,30.05,South,180,2.0,4.0,72,0.00,,,0.00,meteohub,2013-05-18 14:26:00,
2013-05-18 07:31:00,69.3,59.0,30.05,South,180,4.0,4.0,70,0.00,,,0.00,meteohub,2013-05-18 14:31:00,
2013-05-18 07:36:00,69.1,58.8,30.04,South,180,2.0,4.0,70,0.00,,,0.00,meteohub,2013-05-18 14:36:00,
2013-05-18 07:42:00,69.6,59.0,30.05,West,270,2.0,4.0,69,0.00,,,0.00,meteohub,2013-05-18 14:42:00,
2013-05-18 07:47:00,68.9,57.9,30.05,West,270,5.0,7.0,68,0.00,,,0.00,meteohub,2013-05-18 14:47:00,
2013-05-18 07:52:00,68.9,59.2,30.05,NW,315,2.0,7.0,71,0.00,,,0.00,meteohub,2013-05-18 14:52:00,
2013-05-18 07:57:00,69.8,58.3,30.04,NW,315,4.0,7.0,67,0.00,,,0.00,meteohub,2013-05-18 14:57:00,
2013-05-18 08:02:00,68.9,58.6,30.04,West,270,2.0,7.0,70,0.00,,,0.00,meteohub,2013-05-18 15:02:00,
2013-05-18 08:07:00,70.5,59.9,30.05,West,270,2.0,6.0,69,0.00,,,0.00,meteohub,2013-05-18 15:07:00,
2013-05-18 08:12:00,70.9,58.5,30.05,West,270,6.0,6.0,65,0.00,,,0.00,meteohub,2013-05-18 15:12:00,
2013-05-18 08:17:00,69.1,58.1,30.05,West,270,4.0,6.0,68,0.00,,,0.00,meteohub,2013-05-18 15:17:00,
2013-05-18 08:22:00,67.6,58.3,30.05,West,270,6.0,7.0,72,0.00,,,0.00,meteohub,2013-05-18 15:22:00,
2013-05-18 08:27:00,68.4,59.4,30.05,WNW,293,4.0,7.0,73,0.00,,,0.00,meteohub,2013-05-18 15:27:00,
2013-05-18 08:32:00,68.5,57.9,30.05,West,270,4.0,7.0,69,0.00,,,0.00,meteohub,2013-05-18 15:32:00,
2013-05-18 08:37:00,68.4,57.7,30.05,West,270,3.0,6.0,69,0.00,,,0.00,meteohub,2013-05-18 15:37:00,
2013-05-18 08:42:00,68.7,58.1,30.05,West,270,4.0,6.0,69,0.00,,,0.00,meteohub,2013-05-18 15:42:00,
2013-05-18 08:47:00,68.4,57.7,30.06,West,270,8.0,8.0,69,0.00,,,0.00,meteohub,2013-05-18 15:47:00,
2013-05-18 08:52:00,67.5,57.4,30.05,West,270,6.0,8.0,70,0.00,,,0.00,meteohub,2013-05-18 15:52:00,
2013-05-18 08:57:00,68.7,58.5,30.06,West,270,4.0,8.0,70,0.00,,,0.00,meteohub,2013-05-18 15:57:00,
2013-05-18 09:02:00,68.0,57.9,30.06,WNW,293,4.0,9.0,70,0.00,,,0.00,meteohub,2013-05-18 16:02:00,
2013-05-18 09:07:00,66.9,57.6,30.06,West,270,5.0,9.0,72,0.00,,,0.00,meteohub,2013-05-18 16:07:00,
2013-05-18 09:12:00,66.7,57.7,30.06,WNW,293,7.0,8.0,73,0.00,,,0.00,meteohub,2013-05-18 16:12:00,
2013-05-18 09:17:00,66.7,57.7,30.06,West,270,7.0,10.0,73,0.00,,,0.00,meteohub,2013-05-18 16:17:00,
2013-05-18 09:22:00,67.6,57.9,30.06,NW,315,5.0,11.0,71,0.00,,,0.00,meteohub,2013-05-18 16:22:00,
2013-05-18 09:27:00,67.1,57.7,30.06,West,270,8.0,11.0,72,0.00,,,0.00,meteohub,2013-05-18 16:27:00,
2013-05-18 09:32:00,67.1,57.7,30.06,WNW,293,8.0,10.0,72,0.00,,,0.00,meteohub,2013-05-18 16:32:00,
2013-05-18 09:37:00,67.5,58.1,30.05,West,270,8.0,10.0,72,0.00,,,0.00,meteohub,2013-05-18 16:37:00,
2013-05-18 09:42:00,69.8,58.8,30.05,NW,315,5.0,10.0,68,0.00,,,0.00,meteohub,2013-05-18 16:42:00,
2013-05-18 09:47:00,70.3,58.1,30.05,NW,315,10.0,10.0,65,0.00,,,0.00,meteohub,2013-05-18 16:47:00,
2013-05-18 09:52:00,69.8,58.8,30.05,NW,315,5.0,15.0,68,0.00,,,0.00,meteohub,2013-05-18 16:52:00,
2013-05-18 09:57:00,71.1,58.6,30.05,West,270,11.0,15.0,65,0.00,,,0.00,meteohub,2013-05-18 16:57:00,
2013-05-18 10:02:00,70.7,58.3,30.05,NW,315,8.0,15.0,65,0.00,,,0.00,meteohub,2013-05-18 17:02:00,
2013-05-18 10:07:00,70.9,58.5,30.05,West,270,11.0,12.0,65,0.00,,,0.00,meteohub,2013-05-18 17:07:00,
2013-05-18 10:12:00,69.4,57.6,30.05,NW,315,8.0,12.0,66,0.00,,,0.00,meteohub,2013-05-18 17:12:00,
2013-05-18 10:17:00,69.8,57.9,30.05,West,270,11.0,12.0,66,0.00,,,0.00,meteohub,2013-05-18 17:17:00,
2013-05-18 10:22:00,70.0,57.7,30.05,West,270,8.0,11.0,65,0.00,,,0.00,meteohub,2013-05-18 17:22:00,
2013-05-18 10:27:00,68.7,57.7,30.05,NW,315,11.0,14.0,68,0.00,,,0.00,meteohub,2013-05-18 17:27:00,
2013-05-18 10:32:00,69.1,58.1,30.05,NW,315,5.0,15.0,68,0.00,,,0.00,meteohub,2013-05-18 17:32:00,
2013-05-18 10:37:00,70.2,57.9,30.05,West,270,11.0,15.0,65,0.00,,,0.00,meteohub,2013-05-18 17:37:00,
2013-05-18 10:42:00,71.1,58.3,30.05,West,270,8.0,15.0,64,0.00,,,0.00,meteohub,2013-05-18 17:42:00,
2013-05-18 10:47:00,72.0,58.3,30.06,West,270,7.0,15.0,62,0.00,,,0.00,meteohub,2013-05-18 17:47:00,
2013-05-18 10:52:00,71.8,57.6,30.06,West,270,12.0,14.0,61,0.00,,,0.00,meteohub,2013-05-18 17:52:00,
2013-05-18 10:57:00,72.0,57.7,30.06,WNW,293,8.0,14.0,61,0.00,,,0.00,meteohub,2013-05-18 17:57:00,
2013-05-18 11:02:00,72.3,58.6,30.05,NW,315,11.0,12.0,62,0.00,,,0.00,meteohub,2013-05-18 18:02:00,
2013-05-18 11:07:00,72.5,57.7,30.06,NW,315,11.0,14.0,60,0.00,,,0.00,meteohub,2013-05-18 18:07:00,
2013-05-18 11:12:00,72.1,58.5,30.06,NW,315,10.0,14.0,62,0.00,,,0.00,meteohub,2013-05-18 18:12:00,
2013-05-18 11:17:00,72.0,58.6,30.06,WNW,293,13.0,14.0,63,0.00,,,0.00,meteohub,2013-05-18 18:17:00,
2013-05-18 11:22:00,71.8,58.5,30.06,West,270,13.0,14.0,63,0.00,,,0.00,meteohub,2013-05-18 18:22:00,
2013-05-18 11:27:00,72.3,58.6,30.06,West,270,11.0,15.0,62,0.00,,,0.00,meteohub,2013-05-18 18:27:00,
2013-05-18 11:33:00,71.8,58.1,30.06,WNW,293,13.0,15.0,62,0.00,,,0.00,meteohub,2013-05-18 18:33:00,
2013-05-18 11:38:00,71.6,58.8,30.05,NW,315,11.0,15.0,64,0.00,,,0.00,meteohub,2013-05-18 18:38:00,
2013-05-18 11:43:00,71.6,58.3,30.05,NW,315,7.0,14.0,63,0.00,,,0.00,meteohub,2013-05-18 18:43:00,
2013-05-18 11:48:00,71.2,58.5,30.05,NW,315,11.0,14.0,64,0.00,,,0.00,meteohub,2013-05-18 18:48:00,
2013-05-18 11:53:00,70.9,58.5,30.04,WNW,293,11.0,13.0,65,0.00,,,0.00,meteohub,2013-05-18 18:53:00,
2013-05-18 11:58:00,70.7,58.3,30.05,West,270,11.0,15.0,65,0.00,,,0.00,meteohub,2013-05-18 18:58:00,
2013-05-18 12:03:00,71.2,58.5,30.04,NW,315,10.0,15.0,64,0.00,,,0.00,meteohub,2013-05-18 19:03:00,
2013-05-18 12:08:00,71.6,58.3,30.04,West,270,5.0,15.0,63,0.00,,,0.00,meteohub,2013-05-18 19:08:00,
2013-05-18 12:13:00,72.3,57.7,30.04,WNW,293,14.0,14.0,60,0.00,,,0.00,meteohub,2013-05-18 19:13:00,
2013-05-18 12:18:00,71.6,57.0,30.04,WNW,293,11.0,14.0,60,0.00,,,0.00,meteohub,2013-05-18 19:18:00,
2013-05-18 12:23:00,71.6,57.9,30.04,WNW,293,13.0,14.0,62,0.00,,,0.00,meteohub,2013-05-18 19:23:00,
2013-05-18 12:28:00,72.1,57.9,30.03,North,0,13.0,14.0,61,0.00,,,0.00,meteohub,2013-05-18 19:28:00,
2013-05-18 12:33:00,72.5,57.7,30.04,NW,315,12.0,13.0,60,0.00,,,0.00,meteohub,2013-05-18 19:33:00,
2013-05-18 12:38:00,72.0,57.7,30.04,NW,315,10.0,15.0,61,0.00,,,0.00,meteohub,2013-05-18 19:38:00,
2013-05-18 12:43:00,72.3,58.1,30.04,WNW,293,11.0,15.0,61,0.00,,,0.00,meteohub,2013-05-18 19:43:00,
2013-05-18 12:48:00,72.3,57.7,30.04,NW,315,12.0,15.0,60,0.00,,,0.00,meteohub,2013-05-18 19:48:00,
2013-05-18 12:53:00,72.9,58.1,30.04,NW,315,8.0,14.0,60,0.00,,,0.00,meteohub,2013-05-18 19:53:00,
2013-05-18 12:58:00,72.0,56.8,30.04,NW,315,11.0,14.0,59,0.00,,,0.00,meteohub,2013-05-18 19:58:00,
2013-05-18 13:03:00,72.5,57.7,30.04,West,270,11.0,14.0,60,0.00,,,0.00,meteohub,2013-05-18 20:03:00,
2013-05-18 13:08:00,72.7,57.0,30.04,West,270,11.0,12.0,58,0.00,,,0.00,meteohub,2013-05-18 20:08:00,
2013-05-18 13:13:00,72.0,57.4,30.04,NW,315,12.0,13.0,60,0.00,,,0.00,meteohub,2013-05-18 20:13:00,
2013-05-18 13:18:00,72.3,57.7,30.03,West,270,8.0,17.0,60,0.00,,,0.00,meteohub,2013-05-18 20:18:00,
2013-05-18 13:24:00,72.9,58.6,30.03,West,270,11.0,17.0,61,0.00,,,0.00,meteohub,2013-05-18 20:24:00,
2013-05-18 13:29:00,72.3,57.7,30.03,NW,315,11.0,17.0,60,0.00,,,0.00,meteohub,2013-05-18 20:29:00,
2013-05-18 13:34:00,72.5,57.4,30.03,NW,315,12.0,15.0,59,0.00,,,0.00,meteohub,2013-05-18 20:34:00,
2013-05-18 13:39:00,72.7,57.6,30.03,WNW,293,12.0,15.0,59,0.00,,,0.00,meteohub,2013-05-18 20:39:00,
2013-05-18 13:44:00,73.2,58.5,30.03,West,270,11.0,15.0,60,0.00,,,0.00,meteohub,2013-05-18 20:44:00,
2013-05-18 13:49:00,72.5,56.8,30.02,NW,315,12.0,15.0,58,0.00,,,0.00,meteohub,2013-05-18 20:49:00,
2013-05-18 13:54:00,72.7,57.0,30.03,NW,315,11.0,15.0,58,0.00,,,0.00,meteohub,2013-05-18 20:54:00,
2013-05-18 13:59:00,73.0,56.5,30.03,West,270,12.0,15.0,56,0.00,,,0.00,meteohub,2013-05-18 20:59:00,
2013-05-18 14:04:00,73.0,56.5,30.02,West,270,11.0,15.0,56,0.00,,,0.00,meteohub,2013-05-18 21:04:00,
2013-05-18 14:09:00,72.9,57.2,30.02,WSW,248,13.0,13.0,58,0.00,,,0.00,meteohub,2013-05-18 21:09:00,
2013-05-18 14:14:00,72.9,58.1,30.02,NW,315,11.0,13.0,60,0.00,,,0.00,meteohub,2013-05-18 21:14:00,
2013-05-18 14:19:00,72.5,57.7,30.03,West,270,11.0,15.0,60,0.00,,,0.00,meteohub,2013-05-18 21:19:00,
2013-05-18 14:24:00,72.5,58.3,30.03,NW,315,13.0,15.0,61,0.00,,,0.00,meteohub,2013-05-18 21:24:00,
2013-05-18 14:29:00,72.9,58.6,30.02,NW,315,11.0,15.0,61,0.00,,,0.00,meteohub,2013-05-18 21:29:00,
2013-05-18 14:34:00,72.1,57.0,30.02,North,0,11.0,14.0,59,0.00,,,0.00,meteohub,2013-05-18 21:34:00,
2013-05-18 14:39:00,71.8,58.5,30.02,NW,315,12.0,14.0,63,0.00,,,0.00,meteohub,2013-05-18 21:39:00,
2013-05-18 14:44:00,72.0,57.7,30.02,West,270,12.0,15.0,61,0.00,,,0.00,meteohub,2013-05-18 21:44:00,
2013-05-18 14:49:00,72.3,57.7,30.02,NW,315,9.0,15.0,60,0.00,,,0.00,meteohub,2013-05-18 21:49:00,
2013-05-18 14:54:00,72.1,57.9,30.02,NW,315,11.0,15.0,61,0.00,,,0.00,meteohub,2013-05-18 21:54:00,
2013-05-18 14:59:00,72.1,58.5,30.02,NW,315,9.0,15.0,62,0.00,,,0.00,meteohub,2013-05-18 21:59:00,
2013-05-18 15:04:00,72.9,58.6,30.02,NW,315,8.0,14.0,61,0.00,,,0.00,meteohub,2013-05-18 22:04:00,
2013-05-18 15:09:00,73.2,58.5,30.02,West,270,10.0,13.0,60,0.00,,,0.00,meteohub,2013-05-18 22:09:00,
2013-05-18 15:14:00,73.6,59.4,30.02,West,270,8.0,13.0,61,0.00,,,0.00,meteohub,2013-05-18 22:14:00,
2013-05-18 15:19:00,73.4,58.6,30.02,West,270,11.0,13.0,60,0.00,,,0.00,meteohub,2013-05-18 22:19:00,
2013-05-18 15:24:00,72.7,58.8,30.01,NW,315,6.0,11.0,62,0.00,,,0.00,meteohub,2013-05-18 22:24:00,
2013-05-18 15:29:00,72.3,59.5,30.01,West,270,11.0,13.0,64,0.00,,,0.00,meteohub,2013-05-18 22:29:00,
2013-05-18 15:34:00,72.1,59.4,30.01,NW,315,14.0,14.0,64,0.00,,,0.00,meteohub,2013-05-18 22:34:00,
2013-05-18 15:39:00,72.5,59.2,30.01,NW,315,11.0,14.0,63,0.00,,,0.00,meteohub,2013-05-18 22:39:00,
2013-05-18 15:44:00,72.5,59.5,30.01,West,270,12.0,14.0,64,0.00,,,0.00,meteohub,2013-05-18 22:44:00,
2013-05-18 15:49:00,72.0,59.5,30.01,NW,315,11.0,14.0,65,0.00,,,0.00,meteohub,2013-05-18 22:49:00,
2013-05-18 15:54:00,72.3,59.9,30.01,West,270,11.0,14.0,65,0.00,,,0.00,meteohub,2013-05-18 22:54:00,
2013-05-18 15:59:00,72.0,59.5,30.01,West,270,12.0,14.0,65,0.00,,,0.00,meteohub,2013-05-18 22:59:00,
2013-05-18 16:04:00,72.1,59.7,30.01,NW,315,13.0,14.0,65,0.00,,,0.00,meteohub,2013-05-18 23:04:00,
2013-05-18 16:09:00,72.3,60.3,30.01,NW,315,13.0,13.0,66,0.00,,,0.00,meteohub,2013-05-18 23:09:00,
2013-05-18 16:14:00,72.3,59.9,30.01,WNW,293,17.0,17.0,65,0.00,,,0.00,meteohub,2013-05-18 23:14:00,
2013-05-18 16:19:00,72.3,60.3,30.00,West,270,9.0,17.0,66,0.00,,,0.00,meteohub,2013-05-18 23:19:00,
2013-05-18 16:24:00,72.1,60.6,30.00,West,270,8.0,17.0,67,0.00,,,0.00,meteohub,2013-05-18 23:24:00,
2013-05-18 16:29:00,72.7,59.7,30.00,NW,315,11.0,17.0,64,0.00,,,0.00,meteohub,2013-05-18 23:29:00,
2013-05-18 16:34:00,72.5,59.2,30.00,NW,315,10.0,12.0,63,0.00,,,0.00,meteohub,2013-05-18 23:34:00,
2013-05-18 16:40:00,72.7,58.5,30.00,NW,315,10.0,11.0,61,0.00,,,0.00,meteohub,2013-05-18 23:40:00,
2013-05-18 16:45:00,72.7,58.8,30.00,West,270,10.0,13.0,62,0.00,,,0.00,meteohub,2013-05-18 23:45:00,
2013-05-18 16:50:00,72.7,58.5,30.00,West,270,12.0,13.0,61,0.00,,,0.00,meteohub,2013-05-18 23:50:00,
2013-05-18 16:55:00,72.7,60.3,30.00,NW,315,10.0,12.0,65,0.00,,,0.00,meteohub,2013-05-18 23:55:00,
2013-05-18 17:00:00,72.5,59.2,30.00,West,270,10.0,13.0,63,0.00,,,0.00,meteohub,2013-05-19 00:00:00,
2013-05-18 17:05:00,72.5,58.8,29.99,West,270,10.0,13.0,62,0.00,,,0.00,meteohub,2013-05-19 00:05:00,
2013-05-18 17:10:00,72.7,59.7,30.00,NW,315,9.0,12.0,64,0.00,,,0.00,meteohub,2013-05-19 00:10:00,
2013-05-18 17:15:00,72.0,60.4,29.99,NW,315,11.0,12.0,67,0.00,,,0.00,meteohub,2013-05-19 00:15:00,
2013-05-18 17:20:00,71.6,60.1,30.00,NW,315,7.0,14.0,67,0.00,,,0.00,meteohub,2013-05-19 00:20:00,
2013-05-18 17:25:00,71.8,60.6,29.99,West,270,10.0,14.0,68,0.00,,,0.00,meteohub,2013-05-19 00:25:00,
2013-05-18 17:30:00,71.4,59.9,30.00,WNW,293,11.0,14.0,67,0.00,,,0.00,meteohub,2013-05-19 00:30:00,
2013-05-18 17:35:00,70.7,60.4,29.99,NW,315,8.0,13.0,70,0.00,,,0.00,meteohub,2013-05-19 00:35:00,
2013-05-18 17:40:00,70.7,60.4,29.99,NW,315,10.0,13.0,70,0.00,,,0.00,meteohub,2013-05-19 00:40:00,
2013-05-18 17:45:00,70.3,60.1,29.99,NW,315,10.0,13.0,70,0.00,,,0.00,meteohub,2013-05-19 00:45:00,
2013-05-18 17:50:00,70.2,59.5,29.99,NW,315,8.0,11.0,69,0.00,,,0.00,meteohub,2013-05-19 00:50:00,
2013-05-18 17:55:00,70.2,59.2,29.99,West,270,11.0,13.0,68,0.00,,,0.00,meteohub,2013-05-19 00:55:00,
2013-05-18 18:00:00,70.2,59.5,29.99,North,0,12.0,13.0,69,0.00,,,0.00,meteohub,2013-05-19 01:00:00,
2013-05-18 18:05:00,69.6,59.0,29.99,NW,315,13.0,14.0,69,0.00,,,0.00,meteohub,2013-05-19 01:05:00,
2013-05-18 18:10:00,69.6,58.6,29.99,WNW,293,11.0,14.0,68,0.00,,,0.00,meteohub,2013-05-19 01:10:00,
2013-05-18 18:15:00,69.3,59.0,29.99,WNW,293,10.0,14.0,70,0.00,,,0.00,meteohub,2013-05-19 01:15:00,
2013-05-18 18:20:00,69.3,59.0,29.99,WNW,293,9.0,13.0,70,0.00,,,0.00,meteohub,2013-05-19 01:20:00,
2013-05-18 18:25:00,69.3,59.0,29.99,WNW,293,9.0,13.0,70,0.00,,,0.00,meteohub,2013-05-19 01:25:00,
2013-05-18 18:30:00,69.1,58.8,29.99,West,270,8.0,13.0,70,0.00,,,0.00,meteohub,2013-05-19 01:30:00,
2013-05-18 18:35:00,68.9,59.2,29.99,NW,315,10.0,12.0,71,0.00,,,0.00,meteohub,2013-05-19 01:35:00,
2013-05-18 18:40:00,68.5,59.5,29.99,West,270,8.0,12.0,73,0.00,,,0.00,meteohub,2013-05-19 01:40:00,
2013-05-18 18:45:00,68.0,59.4,29.99,NW,315,8.0,13.0,74,0.00,,,0.00,meteohub,2013-05-19 01:45:00,
2013-05-18 18:50:00,67.8,59.9,29.99,NW,315,8.0,13.0,76,0.00,,,0.00,meteohub,2013-05-19 01:50:00,
2013-05-18 18:55:00,67.8,59.2,29.99,WNW,293,11.0,13.0,74,0.00,,,0.00,meteohub,2013-05-19 01:55:00,
2013-05-18 19:00:00,67.1,59.4,30.00,NW,315,15.0,15.0,76,0.00,,,0.00,meteohub,2013-05-19 02:00:00,
2013-05-18 19:05:00,66.6,59.2,29.99,WNW,293,11.0,15.0,77,0.00,,,0.00,meteohub,2013-05-19 02:05:00,
2013-05-18 19:10:00,66.4,59.0,29.99,NW,315,11.0,15.0,77,0.00,,,0.00,meteohub,2013-05-19 02:10:00,
2013-05-18 19:16:00,66.2,59.2,30.00,West,270,6.0,15.0,78,0.00,,,0.00,meteohub,2013-05-19 02:16:00,
2013-05-18 19:21:00,66.0,59.4,29.99,WNW,293,11.0,11.0,79,0.00,,,0.00,meteohub,2013-05-19 02:21:00,
2013-05-18 19:26:00,65.8,58.8,29.99,NW,315,10.0,11.0,78,0.00,,,0.00,meteohub,2013-05-19 02:26:00,
2013-05-18 19:31:00,65.3,58.3,29.99,NW,315,9.0,11.0,78,0.00,,,0.00,meteohub,2013-05-19 02:31:00,
2013-05-18 19:36:00,64.9,57.6,30.00,WNW,293,8.0,11.0,77,0.00,,,0.00,meteohub,2013-05-19 02:36:00,
2013-05-18 19:41:00,64.9,57.2,30.00,NW,315,11.0,11.0,76,0.00,,,0.00,meteohub,2013-05-19 02:41:00,
2013-05-18 19:46:00,64.8,57.7,30.00,WNW,293,8.0,11.0,78,0.00,,,0.00,meteohub,2013-05-19 02:46:00,
2013-05-18 19:51:00,64.4,57.4,30.00,NW,315,10.0,11.0,78,0.00,,,0.00,meteohub,2013-05-19 02:51:00,
2013-05-18 19:56:00,64.2,57.2,30.00,NW,315,4.0,11.0,78,0.00,,,0.00,meteohub,2013-05-19 02:56:00,
2013-05-18 20:01:00,64.2,57.2,30.00,NW,315,10.0,11.0,78,0.00,,,0.00,meteohub,2013-05-19 03:01:00,
2013-05-18 20:06:00,64.0,56.7,30.00,WNW,293,9.0,11.0,77,0.00,,,0.00,meteohub,2013-05-19 03:06:00,
2013-05-18 20:11:00,63.9,56.5,30.00,North,0,6.0,10.0,77,0.00,,,0.00,meteohub,2013-05-19 03:11:00,
2013-05-18 20:16:00,63.9,56.8,30.00,WNW,293,10.0,10.0,78,0.00,,,0.00,meteohub,2013-05-19 03:16:00,
2013-05-18 20:21:00,63.7,57.4,30.00,NW,315,8.0,10.0,80,0.00,,,0.00,meteohub,2013-05-19 03:21:00,
2013-05-18 20:26:00,63.5,57.2,30.00,NW,315,5.0,10.0,80,0.00,,,0.00,meteohub,2013-05-19 03:26:00,
2013-05-18 20:31:00,63.5,57.6,30.00,West,270,8.0,10.0,81,0.00,,,0.00,meteohub,2013-05-19 03:31:00,
2013-05-18 20:36:00,63.5,57.6,30.00,West,270,6.0,8.0,81,0.00,,,0.00,meteohub,2013-05-19 03:36:00,
2013-05-18 20:42:00,63.3,57.7,30.01,West,270,5.0,8.0,82,0.00,,,0.00,meteohub,2013-05-19 03:42:00,
2013-05-18 20:47:00,63.5,58.3,30.01,WNW,293,4.0,8.0,83,0.00,,,0.00,meteohub,2013-05-19 03:47:00,
2013-05-18 20:52:00,63.3,58.1,30.00,NW,315,3.0,7.0,83,0.00,,,0.00,meteohub,2013-05-19 03:52:00,
2013-05-18 20:57:00,63.1,58.6,30.01,West,270,4.0,7.0,85,0.00,,,0.00,meteohub,2013-05-19 03:57:00,
2013-05-18 21:01:00,63.3,58.8,30.01,NW,315,4.0,7.0,85,0.00,,,0.00,meteohub,2013-05-19 04:01:00,
2013-05-18 21:02:00,63.1,58.8,30.01,NW,315,4.0,7.0,86,0.00,,,0.00,meteohub,2013-05-19 04:02:00,
2013-05-18 21:07:00,63.0,58.6,30.01,West,270,4.0,6.0,86,0.00,,,0.00,meteohub,2013-05-19 04:07:00,
2013-05-18 21:12:00,62.8,58.5,30.01,WNW,293,4.0,6.0,86,0.00,,,0.00,meteohub,2013-05-19 04:12:00,
2013-05-18 21:17:00,62.8,58.5,30.01,NW,315,4.0,6.0,86,0.00,,,0.00,meteohub,2013-05-19 04:17:00,
2013-05-18 21:22:00,62.8,58.5,30.01,NW,315,4.0,6.0,86,0.00,,,0.00,meteohub,2013-05-19 04:22:00,
2013-05-18 21:27:00,62.6,58.3,30.01,WNW,293,4.0,6.0,86,0.00,,,0.00,meteohub,2013-05-19 04:27:00,
2013-05-18 21:32:00,62.6,58.6,30.01,NW,315,4.0,6.0,87,0.00,,,0.00,meteohub,2013-05-19 04:32:00,
2013-05-18 21:37:00,62.6,58.6,30.01,NW,315,4.0,6.0,87,0.00,,,0.00,meteohub,2013-05-19 04:37:00,
2013-05-18 21:42:00,62.4,58.5,30.01,NW,315,3.0,6.0,87,0.00,,,0.00,meteohub,2013-05-19 04:42:00,
2013-05-18 21:47:00,62.4,58.5,30.01,NW,315,4.0,5.0,87,0.00,,,0.00,meteohub,2013-05-19 04:47:00,
2013-05-18 21:52:00,62.4,58.5,30.01,NW,315,2.0,4.0,87,0.00,,,0.00,meteohub,2013-05-19 04:52:00,
2013-05-18 21:57:00,62.2,58.3,30.01,West,270,3.0,4.0,87,0.00,,,0.00,meteohub,2013-05-19 04:57:00,
2013-05-18 22:02:00,62.2,58.3,30.01,NW,315,4.0,4.0,87,0.00,,,0.00,meteohub,2013-05-19 05:02:00,
2013-05-18 22:07:00,62.1,58.1,30.01,NW,315,2.0,4.0,87,0.00,,,0.00,meteohub,2013-05-19 05:07:00,
2013-05-18 22:12:00,61.9,57.9,30.00,NW,315,2.0,4.0,87,0.00,,,0.00,meteohub,2013-05-19 05:12:00,
2013-05-18 22:17:00,61.9,57.9,30.01,West,270,2.0,4.0,87,0.00,,,0.00,meteohub,2013-05-19 05:17:00,
2013-05-18 22:22:00,61.9,57.9,30.01,West,270,1.0,4.0,87,0.00,,,0.00,meteohub,2013-05-19 05:22:00,
2013-05-18 22:27:00,61.7,57.7,30.01,West,270,0.0,4.0,87,0.00,,,0.00,meteohub,2013-05-19 05:27:00,
2013-05-18 22:33:00,61.2,57.2,30.01,West,270,1.0,4.0,87,0.00,,,0.00,meteohub,2013-05-19 05:33:00,
2013-05-18 22:38:00,61.0,57.0,30.01,West,270,0.0,2.0,87,0.00,,,0.00,meteohub,2013-05-19 05:38:00,
2013-05-18 22:43:00,60.6,57.0,30.01,West,270,0.0,2.0,88,0.00,,,0.00,meteohub,2013-05-19 05:43:00,
2013-05-18 22:48:00,60.6,57.4,30.01,West,270,1.0,1.0,89,0.00,,,0.00,meteohub,2013-05-19 05:48:00,
2013-05-18 22:53:00,60.6,57.7,30.01,West,270,2.0,2.0,90,0.00,,,0.00,meteohub,2013-05-19 05:53:00,
2013-05-18 22:58:00,60.8,57.9,30.01,West,270,2.0,2.0,90,0.00,,,0.00,meteohub,2013-05-19 05:58:00,
2013-05-18 23:03:00,60.6,57.7,30.00,West,270,2.0,2.0,90,0.00,,,0.00,meteohub,2013-05-19 06:03:00,
2013-05-18 23:08:00,60.8,58.1,30.01,West,270,0.0,2.0,91,0.00,,,0.00,meteohub,2013-05-19 06:08:00,
2013-05-18 23:13:00,60.8,58.1,30.00,West,270,1.0,2.0,91,0.00,,,0.00,meteohub,2013-05-19 06:13:00,
2013-05-18 23:18:00,60.8,58.1,30.00,West,270,0.0,2.0,91,0.00,,,0.00,meteohub,2013-05-19 06:18:00,
2013-05-18 23:23:00,60.6,57.9,30.00,West,270,1.0,2.0,91,0.00,,,0.00,meteohub,2013-05-19 06:23:00,
2013-05-18 23:28:00,60.6,57.9,30.00,West,270,2.0,2.0,91,0.00,,,0.00,meteohub,2013-05-19 06:28:00,
2013-05-18 23:33:00,60.4,57.7,30.00,West,270,1.0,2.0,91,0.00,,,0.00,meteohub,2013-05-19 06:33:00,
2013-05-18 23:38:00,60.6,58.3,30.00,West,270,1.0,2.0,92,0.00,,,0.00,meteohub,2013-05-19 06:38:00,
2013-05-18 23:43:00,60.6,57.9,30.00,West,270,1.0,3.0,91,0.00,,,0.00,meteohub,2013-05-19 06:43:00,
2013-05-18 23:48:00,60.8,58.5,30.00,West,270,2.0,3.0,92,0.00,,,0.00,meteohub,2013-05-19 06:48:00,
2013-05-18 23:53:00,60.8,58.1,30.00,West,270,2.0,2.0,91,0.00,,,0.00,meteohub,2013-05-19 06:53:00,
2013-05-18 23:58:00,60.8,58.1,30.00,West,270,2.0,2.0,91,0.00,,,0.00,meteohub,2013-05-19 06:58:00,